createdAt,value
2018-09-08T00:00:35.616Z,85.83
2018-09-08T00:01:15.017Z,85.52
2018-09-08T00:01:52.968Z,85.72
2018-09-08T00:02:32.078Z,85.52
2018-09-08T00:03:10.153Z,85.82
2018-09-08T00:03:48.225Z,84.81
2018-09-08T00:04:26.290Z,84.98
2018-09-08T00:05:04.196Z,85.85
2018-09-08T00:05:42.149Z,85.38
2018-09-08T00:06:25.146Z,85.47
2018-09-08T00:07:07.188Z,85.23
2018-09-08T00:07:45.277Z,85.54
2018-09-08T00:08:23.261Z,85.17
2018-09-08T00:09:01.424Z,84.96
2018-09-08T00:09:39.604Z,84.98
2018-09-08T00:10:17.750Z,85.45
2018-09-08T00:10:55.778Z,85.46
2018-09-08T00:11:33.957Z,85.59
2018-09-08T00:12:11.981Z,85.58
2018-09-08T00:12:49.972Z,84.71
2018-09-08T00:13:28.058Z,85.21
2018-09-08T00:14:06.265Z,84.46
2018-09-08T00:14:42.323Z,84.06
2018-09-08T00:15:24.319Z,84.75
2018-09-08T00:16:07.694Z,84.31
2018-09-08T00:16:49.947Z,84.86
2018-09-08T00:17:31.946Z,85.15
2018-09-08T00:18:14.157Z,84.09
2018-09-08T00:18:56.143Z,85.31
2018-09-08T00:19:38.404Z,85.19
2018-09-08T00:20:21.097Z,85.17
2018-09-08T00:21:03.073Z,85.05
2018-09-08T00:21:45.112Z,84.52
2018-09-08T00:22:27.043Z,84.46
2018-09-08T00:23:08.947Z,84.85
2018-09-08T00:23:51.061Z,84.01
2018-09-08T00:24:33.052Z,83.89
2018-09-08T00:25:15.169Z,83.84
2018-09-08T00:25:57.333Z,84.62
2018-09-08T00:26:34.415Z,83.81
2018-09-08T00:27:10.662Z,84.05
2018-09-08T00:27:58.577Z,83.51
2018-09-08T00:28:41.725Z,83.48
2018-09-08T00:29:23.865Z,83.39
2018-09-08T00:30:05.394Z,83.32
2018-09-08T00:30:43.818Z,83.65
2018-09-08T00:31:23.027Z,84.09
2018-09-08T00:32:01.606Z,84.22
2018-09-08T00:32:41.117Z,83.76
2018-09-08T00:33:19.153Z,83.77
2018-09-08T00:33:57.149Z,84.04
2018-09-08T00:34:35.174Z,84.06
2018-09-08T00:35:13.250Z,83.58
2018-09-08T00:35:51.275Z,82.82
2018-09-08T00:36:29.350Z,83.87
2018-09-08T00:37:07.406Z,83.86
2018-09-08T00:37:45.481Z,83.68
2018-09-08T00:38:23.526Z,83.67
2018-09-08T00:39:01.537Z,83.22
2018-09-08T00:39:39.925Z,82.65
2018-09-08T00:40:17.950Z,82.54
2018-09-08T00:40:55.996Z,82.21
2018-09-08T00:41:34.039Z,83.23
2018-09-08T00:42:12.046Z,82.62
2018-09-08T00:42:50.270Z,82.58
2018-09-08T00:43:28.339Z,83.19
2018-09-08T00:44:06.567Z,82.43
2018-09-08T00:44:44.557Z,82.85
2018-09-08T00:45:22.466Z,83.57
2018-09-08T00:46:00.357Z,83.11
2018-09-08T00:46:38.333Z,82.42
2018-09-08T00:47:16.351Z,82.80
2018-09-08T00:47:54.360Z,83.06
2018-09-08T00:48:32.484Z,83.00
2018-09-08T00:49:10.466Z,82.95
2018-09-08T00:49:48.706Z,82.99
2018-09-08T00:50:26.695Z,82.44
2018-09-08T00:51:04.621Z,83.11
2018-09-08T00:51:42.736Z,82.28
2018-09-08T00:52:20.813Z,82.62
2018-09-08T00:52:59.338Z,83.34
2018-09-08T00:53:37.368Z,82.53
2018-09-08T00:54:15.269Z,83.10
2018-09-08T00:54:53.314Z,83.68
2018-09-08T00:55:31.481Z,83.45
2018-09-08T00:56:09.632Z,83.24
2018-09-08T00:56:47.733Z,83.15
2018-09-08T00:57:25.617Z,83.30
2018-09-08T00:58:03.794Z,82.59
2018-09-08T00:58:45.231Z,82.86
2018-09-08T00:59:23.180Z,83.26
2018-09-08T01:00:01.242Z,83.31
2018-09-08T01:00:39.338Z,83.08
2018-09-08T01:01:18.069Z,82.45
2018-09-08T01:01:56.124Z,83.30
2018-09-08T01:02:34.412Z,82.88
2018-09-08T01:03:12.415Z,82.86
2018-09-08T01:03:50.446Z,82.59
2018-09-08T01:04:28.570Z,81.79
2018-09-08T01:05:06.557Z,81.91
2018-09-08T01:05:44.872Z,81.98
2018-09-08T01:06:23.194Z,82.03
2018-09-08T01:07:01.290Z,81.20
2018-09-08T01:07:39.487Z,81.59
2018-09-08T01:08:17.769Z,80.37
2018-09-08T01:08:56.028Z,81.41
2018-09-08T01:09:34.423Z,80.57
2018-09-08T01:10:12.871Z,81.11
2018-09-08T01:10:51.279Z,79.96
2018-09-08T01:11:29.547Z,79.87
2018-09-08T01:12:07.821Z,80.70
2018-09-08T01:12:46.183Z,79.96
2018-09-08T01:13:24.341Z,79.65
2018-09-08T01:14:02.482Z,79.58
2018-09-08T01:14:40.383Z,79.98
2018-09-08T01:15:18.316Z,80.07
2018-09-08T01:15:56.333Z,79.89
2018-09-08T01:16:34.430Z,79.81
2018-09-08T01:17:12.418Z,80.36
2018-09-08T01:17:50.437Z,79.10
2018-09-08T01:18:28.378Z,80.41
2018-09-08T01:19:06.806Z,80.61
2018-09-08T01:19:44.672Z,80.33
2018-09-08T01:20:22.801Z,79.98
2018-09-08T01:21:00.683Z,79.65
2018-09-08T01:21:38.758Z,80.40
2018-09-08T01:22:16.738Z,79.42
2018-09-08T01:22:54.647Z,79.83
2018-09-08T01:23:32.802Z,80.14
2018-09-08T01:24:10.827Z,80.35
2018-09-08T01:24:48.903Z,79.95
2018-09-08T01:25:26.886Z,80.37
2018-09-08T01:26:04.898Z,80.01
2018-09-08T01:26:43.030Z,79.59
2018-09-08T01:27:20.928Z,79.56
2018-09-08T01:27:58.787Z,80.01
2018-09-08T01:28:36.896Z,80.02
2018-09-08T01:29:14.940Z,79.97
2018-09-08T01:29:52.885Z,79.44
2018-09-08T01:30:30.879Z,79.30
2018-09-08T01:31:08.907Z,78.34
2018-09-08T01:31:47.339Z,79.59
2018-09-08T01:32:25.390Z,78.99
2018-09-08T01:33:03.411Z,79.33
2018-09-08T01:33:41.461Z,78.53
2018-09-08T01:34:20.101Z,78.17
2018-09-08T01:34:57.959Z,77.74
2018-09-08T01:35:36.029Z,77.80
2018-09-08T01:36:13.947Z,77.54
2018-09-08T01:36:52.016Z,79.22
2018-09-08T01:37:29.958Z,77.78
2018-09-08T01:38:07.898Z,77.86
2018-09-08T01:38:45.923Z,78.00
2018-09-08T01:39:23.883Z,78.53
2018-09-08T01:40:01.807Z,77.22
2018-09-08T01:40:39.807Z,77.54
2018-09-08T01:41:17.729Z,77.61
2018-09-08T01:41:55.641Z,78.24
2018-09-08T01:42:33.625Z,77.40
2018-09-08T01:43:11.763Z,77.46
2018-09-08T01:43:49.834Z,76.37
2018-09-08T01:44:29.129Z,77.37
2018-09-08T01:45:07.081Z,77.24
2018-09-08T01:45:44.985Z,76.37
2018-09-08T01:46:22.960Z,76.60
2018-09-08T01:47:01.054Z,75.44
2018-09-08T01:47:39.333Z,74.97
2018-09-08T01:48:17.264Z,74.72
2018-09-08T01:48:55.280Z,74.28
2018-09-08T01:49:33.145Z,74.59
2018-09-08T01:50:11.359Z,74.72
2018-09-08T01:50:49.384Z,73.26
2018-09-08T01:51:28.327Z,73.79
2018-09-08T01:52:06.364Z,73.80
2018-09-08T01:52:44.368Z,73.52
2018-09-08T01:53:22.320Z,73.82
2018-09-08T01:54:00.386Z,73.87
2018-09-08T01:54:38.232Z,73.21
2018-09-08T01:55:18.038Z,73.12
2018-09-08T01:55:55.957Z,72.94
2018-09-08T01:56:34.032Z,72.34
2018-09-08T01:57:11.988Z,71.68
2018-09-08T01:57:50.335Z,71.84
2018-09-08T01:58:28.352Z,71.22
2018-09-08T01:59:06.394Z,71.52
2018-09-08T01:59:44.496Z,71.61
2018-09-08T02:00:22.411Z,71.35
2018-09-08T02:01:00.257Z,71.51
2018-09-08T02:01:38.177Z,71.06
2018-09-08T02:02:16.967Z,71.76
2018-09-08T02:02:54.807Z,70.98
2018-09-08T02:03:32.826Z,71.21
2018-09-08T02:04:10.781Z,70.50
2018-09-08T02:04:48.792Z,71.05
2018-09-08T02:05:26.705Z,71.31
2018-09-08T02:06:04.797Z,71.44
2018-09-08T02:06:43.733Z,71.10
2018-09-08T02:07:22.001Z,71.55
2018-09-08T02:08:00.029Z,71.92
2018-09-08T02:08:37.948Z,71.86
2018-09-08T02:09:17.110Z,71.44
2018-09-08T02:09:54.967Z,71.41
2018-09-08T02:10:32.935Z,71.50
2018-09-08T02:11:11.328Z,71.35
2018-09-08T02:11:49.593Z,71.51
2018-09-08T02:12:27.550Z,71.22
2018-09-08T02:13:05.555Z,71.18
2018-09-08T02:13:43.597Z,70.96
2018-09-08T02:14:21.550Z,71.10
2018-09-08T02:14:59.502Z,71.04
2018-09-08T02:15:37.409Z,71.10
2018-09-08T02:16:15.396Z,70.44
2018-09-08T02:16:53.329Z,70.33
2018-09-08T02:17:31.320Z,70.34
2018-09-08T02:18:09.328Z,69.77
2018-09-08T02:18:47.572Z,69.48
2018-09-08T02:19:25.568Z,69.74
2018-09-08T02:20:03.542Z,70.26
2018-09-08T02:20:41.484Z,69.81
2018-09-08T02:21:19.527Z,70.63
2018-09-08T02:21:57.565Z,70.49
2018-09-08T02:22:35.499Z,70.84
2018-09-08T02:23:13.504Z,70.78
2018-09-08T02:23:51.605Z,70.28
2018-09-08T02:24:29.481Z,70.15
2018-09-08T02:25:08.278Z,69.66
2018-09-08T02:25:46.208Z,69.82
2018-09-08T02:26:24.264Z,69.69
2018-09-08T02:27:02.188Z,69.63
2018-09-08T02:27:40.199Z,69.63
2018-09-08T02:28:18.227Z,69.54
2018-09-08T02:28:56.182Z,69.72
2018-09-08T02:29:34.252Z,69.92
2018-09-08T02:30:12.392Z,69.94
2018-09-08T02:30:50.305Z,70.03
2018-09-08T02:31:28.357Z,70.08
2018-09-08T02:32:06.396Z,69.89
2018-09-08T02:32:44.363Z,69.53
2018-09-08T02:33:22.350Z,68.96
2018-09-08T02:34:00.328Z,69.15
2018-09-08T02:34:39.255Z,69.06
2018-09-08T02:35:17.278Z,69.26
2018-09-08T02:35:55.269Z,69.20
2018-09-08T02:36:33.272Z,69.05
2018-09-08T02:37:11.227Z,68.58
2018-09-08T02:37:49.245Z,68.62
2018-09-08T02:38:27.116Z,68.03
2018-09-08T02:39:05.212Z,67.95
2018-09-08T02:39:43.175Z,67.70
2018-09-08T02:40:21.231Z,67.60
2018-09-08T02:40:59.281Z,67.31
2018-09-08T02:41:37.240Z,67.10
2018-09-08T02:42:15.137Z,67.21
2018-09-08T02:42:53.101Z,67.70
2018-09-08T02:43:31.152Z,67.77
2018-09-08T02:44:09.056Z,68.17
2018-09-08T02:44:47.075Z,68.02
2018-09-08T02:45:25.955Z,67.60
2018-09-08T02:46:03.836Z,66.72
2018-09-08T02:46:42.280Z,65.86
2018-09-08T02:47:20.194Z,66.27
2018-09-08T02:47:58.236Z,66.02
2018-09-08T02:48:36.392Z,65.94
2018-09-08T02:49:14.380Z,66.17
2018-09-08T02:50:01.218Z,66.17
2018-09-08T02:50:39.954Z,65.51
2018-09-08T02:51:14.724Z,66.09
2018-09-08T02:51:49.468Z,65.20
2018-09-08T02:52:24.329Z,64.78
2018-09-08T02:52:59.242Z,64.52
2018-09-08T02:53:34.022Z,64.39
2018-09-08T02:54:08.814Z,64.10
2018-09-08T02:54:43.526Z,64.55
2018-09-08T02:55:18.304Z,63.64
2018-09-08T02:55:53.019Z,63.69
2018-09-08T02:56:27.818Z,64.08
2018-09-08T02:57:02.641Z,63.56
2018-09-08T02:57:37.359Z,63.55
2018-09-08T02:58:12.102Z,63.13
2018-09-08T02:58:46.841Z,63.08
2018-09-08T02:59:21.576Z,63.12
2018-09-08T02:59:56.737Z,62.96
2018-09-08T03:00:31.938Z,63.46
2018-09-08T03:01:06.744Z,63.41
2018-09-08T03:01:41.488Z,63.72
2018-09-08T03:02:16.277Z,64.25
2018-09-08T03:02:51.171Z,64.27
2018-09-08T03:03:25.951Z,64.98
2018-09-08T03:04:00.709Z,64.45
2018-09-08T03:04:35.446Z,64.74
2018-09-08T03:05:10.222Z,64.55
2018-09-08T03:05:44.958Z,64.73
2018-09-08T03:06:19.680Z,64.81
2018-09-08T03:06:54.497Z,65.25
2018-09-08T03:07:29.266Z,65.62
2018-09-08T03:08:03.985Z,65.91
2018-09-08T03:08:38.740Z,66.17
2018-09-08T03:09:13.494Z,66.88
2018-09-08T03:09:48.381Z,67.32
2018-09-08T03:10:23.837Z,67.69
2018-09-08T03:10:58.700Z,68.39
2018-09-08T03:11:33.468Z,69.03
2018-09-08T03:12:08.333Z,69.48
2018-09-08T03:12:43.102Z,69.96
2018-09-08T03:13:17.841Z,70.16
2018-09-08T03:13:52.675Z,70.54
2018-09-08T03:14:27.434Z,70.84
2018-09-08T03:15:02.248Z,71.62
2018-09-08T03:15:36.975Z,71.38
2018-09-08T03:16:11.680Z,71.05
2018-09-08T03:16:46.460Z,71.63
2018-09-08T03:17:21.318Z,71.98
2018-09-08T03:17:56.076Z,72.55
2018-09-08T03:18:32.161Z,72.59
2018-09-08T03:19:06.921Z,73.38
2018-09-08T03:19:41.632Z,73.84
2018-09-08T03:20:16.423Z,74.25
2018-09-08T03:20:51.279Z,73.56
2018-09-08T03:21:26.075Z,73.93
2018-09-08T03:22:00.892Z,73.89
2018-09-08T03:22:35.590Z,74.35
2018-09-08T03:23:10.364Z,74.04
2018-09-08T03:23:45.104Z,73.08
2018-09-08T03:24:19.767Z,73.00
2018-09-08T03:24:54.543Z,73.73
2018-09-08T03:25:29.299Z,75.33
2018-09-08T03:26:04.129Z,76.16
2018-09-08T03:26:38.835Z,75.98
2018-09-08T03:27:13.616Z,75.27
2018-09-08T03:27:48.340Z,75.76
2018-09-08T03:28:23.064Z,77.31
2018-09-08T03:28:57.811Z,77.83
2018-09-08T03:29:32.601Z,76.86
2018-09-08T03:30:07.467Z,77.25
2018-09-08T03:30:42.165Z,77.45
2018-09-08T03:31:17.015Z,77.75
2018-09-08T03:31:51.816Z,77.87
2018-09-08T03:32:26.753Z,77.87
2018-09-08T03:33:01.531Z,76.93
2018-09-08T03:33:36.305Z,77.64
2018-09-08T03:34:11.085Z,76.39
2018-09-08T03:34:45.969Z,77.53
2018-09-08T03:35:20.740Z,77.29
2018-09-08T03:35:55.503Z,76.63
2018-09-08T03:36:30.398Z,76.77
2018-09-08T03:37:05.093Z,76.76
2018-09-08T03:37:39.834Z,76.87
2018-09-08T03:38:14.644Z,77.07
2018-09-08T03:38:49.487Z,76.74
2018-09-08T03:39:24.229Z,76.36
2018-09-08T03:39:58.925Z,77.41
2018-09-08T03:40:33.730Z,77.38
2018-09-08T03:41:08.669Z,76.84
2018-09-08T03:41:43.399Z,77.26
2018-09-08T03:42:18.158Z,77.44
2018-09-08T03:42:52.970Z,77.77
2018-09-08T03:43:27.740Z,79.67
2018-09-08T03:44:02.457Z,79.04
2018-09-08T03:44:37.225Z,79.10
2018-09-08T03:45:11.976Z,80.08
2018-09-08T03:45:46.653Z,79.07
2018-09-08T03:46:21.693Z,80.27
2018-09-08T03:46:56.540Z,80.59
2018-09-08T03:47:31.369Z,81.00
2018-09-08T03:48:06.167Z,80.02
2018-09-08T03:48:40.886Z,80.43
2018-09-08T03:49:15.642Z,80.36
2018-09-08T03:49:50.429Z,79.93
2018-09-08T03:50:25.282Z,81.42
2018-09-08T03:51:00.039Z,80.63
2018-09-08T03:51:34.858Z,81.19
2018-09-08T03:52:09.643Z,81.53
2018-09-08T03:52:44.392Z,80.06
2018-09-08T03:53:19.190Z,81.32
2018-09-08T03:53:53.906Z,80.89
2018-09-08T03:54:28.660Z,80.24
2018-09-08T03:55:03.364Z,81.61
2018-09-08T03:55:38.201Z,80.19
2018-09-08T03:56:13.388Z,81.02
2018-09-08T03:56:48.265Z,80.19
2018-09-08T03:57:23.027Z,80.72
2018-09-08T03:57:57.797Z,80.67
2018-09-08T03:58:32.649Z,80.72
2018-09-08T03:59:07.480Z,80.45
2018-09-08T03:59:42.278Z,80.79
2018-09-08T04:00:17.054Z,80.62
2018-09-08T04:00:52.075Z,79.99
2018-09-08T04:01:26.819Z,79.46
2018-09-08T04:02:01.612Z,79.30
2018-09-08T04:02:36.413Z,79.70
2018-09-08T04:03:14.663Z,79.98
2018-09-08T04:03:52.761Z,79.27
2018-09-08T04:04:30.866Z,79.85
2018-09-08T04:05:08.926Z,79.20
2018-09-08T04:05:46.774Z,79.44
2018-09-08T04:06:24.787Z,78.93
2018-09-08T04:07:02.799Z,79.11
2018-09-08T04:07:40.874Z,78.42
2018-09-08T04:08:18.899Z,79.23
2018-09-08T04:08:57.291Z,77.83
2018-09-08T04:09:35.253Z,78.14
2018-09-08T04:10:13.242Z,79.28
2018-09-08T04:10:51.354Z,78.89
2018-09-08T04:11:29.466Z,78.30
2018-09-08T04:12:07.632Z,78.09
2018-09-08T04:12:45.614Z,78.29
2018-09-08T04:13:23.693Z,77.88
2018-09-08T04:14:01.769Z,78.02
2018-09-08T04:14:39.695Z,78.09
2018-09-08T04:15:17.605Z,77.18
2018-09-08T04:15:55.757Z,78.34
2018-09-08T04:16:34.213Z,77.06
2018-09-08T04:17:12.252Z,77.99
2018-09-08T04:17:50.220Z,76.08
2018-09-08T04:18:28.249Z,76.01
2018-09-08T04:19:06.354Z,75.98
2018-09-08T04:19:44.321Z,76.96
2018-09-08T04:20:23.120Z,76.31
2018-09-08T04:21:01.237Z,76.34
2018-09-08T04:21:39.247Z,75.75
2018-09-08T04:22:17.143Z,75.70
2018-09-08T04:22:55.119Z,76.61
2018-09-08T04:23:33.267Z,76.93
2018-09-08T04:24:11.323Z,76.57
2018-09-08T04:24:49.398Z,76.81
2018-09-08T04:25:27.361Z,76.46
2018-09-08T04:26:05.464Z,75.72
2018-09-08T04:26:43.463Z,76.72
2018-09-08T04:27:21.588Z,75.24
2018-09-08T04:27:59.484Z,75.73
2018-09-08T04:28:37.465Z,75.49
2018-09-08T04:29:15.479Z,74.81
2018-09-08T04:29:53.456Z,75.81
2018-09-08T04:30:32.368Z,74.40
2018-09-08T04:31:10.447Z,75.38
2018-09-08T04:31:48.442Z,74.48
2018-09-08T04:32:26.509Z,75.75
2018-09-08T04:33:04.679Z,75.48
2018-09-08T04:33:42.639Z,74.94
2018-09-08T04:34:20.608Z,75.66
2018-09-08T04:34:58.541Z,75.38
2018-09-08T04:35:36.520Z,76.21
2018-09-08T04:36:14.498Z,75.55
2018-09-08T04:36:52.864Z,75.12
2018-09-08T04:37:30.775Z,74.74
2018-09-08T04:38:08.713Z,74.73
2018-09-08T04:38:46.555Z,74.38
2018-09-08T04:39:24.689Z,75.04
2018-09-08T04:40:02.623Z,75.73
2018-09-08T04:40:40.614Z,75.54
2018-09-08T04:41:18.713Z,74.24
2018-09-08T04:41:56.706Z,75.08
2018-09-08T04:42:34.808Z,75.77
2018-09-08T04:43:12.850Z,75.22
2018-09-08T04:43:50.808Z,74.51
2018-09-08T04:44:28.680Z,74.51
2018-09-08T04:45:06.714Z,74.62
2018-09-08T04:45:44.527Z,75.37
2018-09-08T04:46:22.379Z,74.83
2018-09-08T04:47:00.371Z,75.09
2018-09-08T04:47:38.360Z,75.95
2018-09-08T04:48:17.099Z,75.58
2018-09-08T04:48:54.969Z,75.89
2018-09-08T04:49:32.969Z,74.79
2018-09-08T04:50:10.976Z,75.31
2018-09-08T04:50:48.943Z,75.50
2018-09-08T04:51:26.848Z,74.82
2018-09-08T04:52:05.202Z,74.18
2018-09-08T04:52:43.052Z,74.15
2018-09-08T04:53:21.453Z,73.98
2018-09-08T04:53:59.525Z,75.22
2018-09-08T04:54:37.538Z,74.23
2018-09-08T04:55:15.391Z,75.14
2018-09-08T04:55:53.264Z,74.39
2018-09-08T04:56:31.310Z,74.37
2018-09-08T04:57:09.453Z,75.09
2018-09-08T04:57:47.491Z,75.86
2018-09-08T04:58:25.652Z,74.74
2018-09-08T04:59:03.877Z,74.96
2018-09-08T04:59:41.862Z,74.81
2018-09-08T05:00:19.946Z,74.29
2018-09-08T05:00:57.876Z,74.31
2018-09-08T05:01:35.932Z,74.85
2018-09-08T05:02:13.924Z,74.24
2018-09-08T05:02:52.036Z,74.37
2018-09-08T05:03:29.889Z,74.84
2018-09-08T05:04:07.856Z,74.10
2018-09-08T05:04:45.885Z,74.05
2018-09-08T05:05:23.972Z,75.23
2018-09-08T05:06:01.970Z,74.87
2018-09-08T05:06:39.935Z,73.86
2018-09-08T05:07:17.882Z,74.43
2018-09-08T05:07:56.919Z,74.04
2018-09-08T05:08:34.905Z,74.05
2018-09-08T05:09:14.387Z,74.35
2018-09-08T05:09:52.317Z,75.37
2018-09-08T05:10:30.284Z,75.10
2018-09-08T05:11:08.294Z,75.05
2018-09-08T05:11:46.293Z,73.80
2018-09-08T05:12:24.375Z,73.54
2018-09-08T05:13:02.479Z,74.27
2018-09-08T05:13:40.496Z,75.09
2018-09-08T05:14:18.613Z,74.86
2018-09-08T05:14:56.565Z,74.10
2018-09-08T05:15:34.579Z,74.91
2018-09-08T05:16:12.511Z,73.60
2018-09-08T05:16:50.442Z,73.04
2018-09-08T05:17:29.422Z,73.50
2018-09-08T05:18:07.499Z,74.25
2018-09-08T05:18:46.354Z,73.03
2018-09-08T05:19:24.472Z,74.19
2018-09-08T05:20:02.476Z,73.95
2018-09-08T05:20:40.501Z,73.05
2018-09-08T05:21:18.463Z,74.13
2018-09-08T05:21:56.438Z,73.95
2018-09-08T05:22:34.408Z,73.36
2018-09-08T05:23:12.581Z,74.30
2018-09-08T05:23:50.493Z,74.13
2018-09-08T05:24:28.549Z,74.02
2018-09-08T05:25:06.532Z,73.11
2018-09-08T05:25:44.549Z,73.25
2018-09-08T05:26:22.493Z,72.94
2018-09-08T05:27:00.880Z,72.81
2018-09-08T05:27:38.927Z,73.31
2018-09-08T05:28:17.020Z,74.32
2018-09-08T05:28:54.997Z,73.59
2018-09-08T05:29:33.058Z,73.32
2018-09-08T05:30:11.045Z,73.78
2018-09-08T05:30:48.973Z,73.35
2018-09-08T05:31:27.021Z,74.04
2018-09-08T05:32:05.058Z,73.37
2018-09-08T05:32:43.062Z,74.51
2018-09-08T05:33:21.540Z,74.37
2018-09-08T05:33:59.484Z,73.29
2018-09-08T05:34:37.436Z,73.47
2018-09-08T05:35:15.387Z,73.10
2018-09-08T05:35:53.273Z,73.45
2018-09-08T05:36:31.339Z,73.51
2018-09-08T05:37:09.425Z,73.84
2018-09-08T05:37:47.304Z,74.26
2018-09-08T05:38:25.269Z,75.19
2018-09-08T05:39:03.140Z,74.64
2018-09-08T05:39:41.129Z,74.46
2018-09-08T05:40:19.116Z,74.68
2018-09-08T05:40:57.097Z,74.61
2018-09-08T05:41:34.980Z,74.41
2018-09-08T05:42:13.810Z,74.72
2018-09-08T05:42:51.885Z,74.67
2018-09-08T05:43:29.911Z,74.99
2018-09-08T05:44:07.939Z,74.06
2018-09-08T05:45:28.011Z,74.10
2018-09-08T05:46:05.907Z,73.34
2018-09-08T05:46:43.965Z,74.57
2018-09-08T05:47:22.430Z,73.21
2018-09-08T05:48:00.395Z,74.02
2018-09-08T05:48:38.385Z,74.02
2018-09-08T05:49:16.244Z,74.18
2018-09-08T05:49:54.222Z,73.08
2018-09-08T05:50:32.373Z,74.66
2018-09-08T05:51:10.405Z,73.52
2018-09-08T05:51:48.467Z,74.15
2018-09-08T05:52:26.441Z,73.68
2018-09-08T05:53:04.598Z,72.99
2018-09-08T05:53:42.615Z,73.75
2018-09-08T05:54:20.645Z,74.10
2018-09-08T05:54:58.641Z,72.96
2018-09-08T05:55:36.575Z,73.70
2018-09-08T05:56:14.565Z,72.45
2018-09-08T05:56:52.663Z,73.55
2018-09-08T05:57:30.661Z,72.36
2018-09-08T05:58:08.594Z,72.52
2018-09-08T05:58:46.608Z,73.88
2018-09-08T05:59:24.475Z,73.15
2018-09-08T06:00:02.479Z,73.79
2018-09-08T06:00:40.421Z,73.52
2018-09-08T06:01:18.579Z,73.81
2018-09-08T06:01:56.686Z,73.37
2018-09-08T06:02:34.517Z,74.07
2018-09-08T06:03:12.444Z,73.67
2018-09-08T06:03:50.535Z,73.18
2018-09-08T06:04:28.591Z,73.49
2018-09-08T06:05:06.536Z,73.73
2018-09-08T06:05:44.442Z,72.63
2018-09-08T06:06:22.389Z,74.00
2018-09-08T06:07:05.171Z,73.66
2018-09-08T06:07:43.273Z,73.04
2018-09-08T06:08:21.196Z,72.47
2018-09-08T06:08:59.181Z,72.35
2018-09-08T06:09:37.930Z,73.03
2018-09-08T06:10:16.501Z,72.12
2018-09-08T06:10:54.525Z,72.40
2018-09-08T06:11:32.529Z,72.29
2018-09-08T06:12:10.500Z,71.95
2018-09-08T06:12:48.293Z,72.36
2018-09-08T06:13:26.291Z,72.66
2018-09-08T06:14:04.151Z,71.70
2018-09-08T06:14:42.075Z,71.93
2018-09-08T06:15:20.041Z,71.42
2018-09-08T06:15:57.967Z,71.49
2018-09-08T06:16:36.114Z,70.73
2018-09-08T06:17:13.950Z,71.55
2018-09-08T06:17:51.860Z,70.79
2018-09-08T06:18:29.783Z,71.90
2018-09-08T06:19:07.938Z,71.41
2018-09-08T06:19:46.043Z,71.39
2018-09-08T06:20:24.098Z,71.98
2018-09-08T06:21:02.034Z,70.98
2018-09-08T06:21:40.038Z,71.65
2018-09-08T06:22:17.877Z,70.55
2018-09-08T06:22:55.982Z,71.05
2018-09-08T06:23:33.917Z,70.16
2018-09-08T06:24:11.763Z,69.67
2018-09-08T06:24:50.741Z,71.21
2018-09-08T06:25:28.827Z,71.21
2018-09-08T06:26:06.720Z,70.89
2018-09-08T06:26:44.679Z,70.85
2018-09-08T06:27:22.729Z,70.30
2018-09-08T06:28:01.369Z,70.26
2018-09-08T06:28:40.178Z,71.59
2018-09-08T06:29:18.494Z,71.91
2018-09-08T06:29:56.428Z,71.63
2018-09-08T06:30:34.323Z,69.84
2018-09-08T06:31:12.341Z,69.47
2018-09-08T06:31:50.376Z,70.12
2018-09-08T06:32:28.398Z,69.29
2018-09-08T06:33:06.327Z,69.00
2018-09-08T06:33:44.438Z,69.10
2018-09-08T06:34:22.405Z,69.10
2018-09-08T06:35:00.524Z,69.53
2018-09-08T06:35:38.665Z,68.95
2018-09-08T06:36:16.641Z,68.12
2018-09-08T06:36:54.716Z,68.91
2018-09-08T06:37:32.644Z,68.95
2018-09-08T06:38:10.724Z,67.73
2018-09-08T06:38:48.693Z,68.84
2018-09-08T06:39:26.660Z,68.63
2018-09-08T06:40:46.774Z,67.90
2018-09-08T06:41:25.906Z,68.57
2018-09-08T06:42:03.870Z,67.67
2018-09-08T06:42:41.870Z,67.18
2018-09-08T06:43:19.845Z,67.09
2018-09-08T06:43:57.885Z,67.58
2018-09-08T06:44:36.728Z,66.75
2018-09-08T06:45:14.747Z,66.73
2018-09-08T06:45:52.674Z,66.35
2018-09-08T06:46:30.553Z,66.52
2018-09-08T06:47:09.377Z,66.59
2018-09-08T06:47:47.352Z,66.99
2018-09-08T06:48:25.324Z,67.60
2018-09-08T06:49:03.581Z,68.08
2018-09-08T06:49:41.672Z,68.00
2018-09-08T06:52:11.473Z,66.48
2018-09-08T06:52:49.483Z,67.47
2018-09-08T06:53:27.336Z,67.52
2018-09-08T06:54:05.598Z,67.69
2018-09-08T06:54:43.669Z,67.04
2018-09-08T06:55:21.744Z,66.20
2018-09-08T06:55:59.809Z,66.51
2018-09-08T06:56:37.953Z,65.81
2018-09-08T06:57:15.969Z,66.93
2018-09-08T06:57:53.936Z,66.92
2018-09-08T06:58:31.888Z,66.48
2018-09-08T06:59:09.938Z,67.42
2018-09-08T06:59:47.822Z,67.53
2018-09-08T07:00:25.792Z,66.59
2018-09-08T07:01:03.813Z,67.31
2018-09-08T07:01:41.808Z,66.86
2018-09-08T07:02:19.844Z,67.03
2018-09-08T07:02:57.689Z,66.03
2018-09-08T07:03:35.702Z,66.85
2018-09-08T07:04:13.654Z,66.34
2018-09-08T07:04:51.517Z,65.78
2018-09-08T07:05:29.683Z,66.78
2018-09-08T07:06:07.686Z,67.03
2018-09-08T07:06:45.548Z,66.38
2018-09-08T07:07:23.473Z,66.48
2018-09-08T07:08:01.485Z,66.24
2018-09-08T07:08:39.498Z,64.92
2018-09-08T07:09:17.604Z,65.36
2018-09-08T07:09:55.584Z,65.60
2018-09-08T07:10:33.446Z,65.24
2018-09-08T07:11:11.601Z,65.22
2018-09-08T07:11:49.518Z,65.16
2018-09-08T07:12:27.548Z,65.34
2018-09-08T07:13:06.010Z,65.58
2018-09-08T07:13:43.968Z,66.23
2018-09-08T07:14:21.808Z,65.42
2018-09-08T07:14:59.919Z,65.16
2018-09-08T07:15:37.801Z,64.95
2018-09-08T07:16:15.805Z,65.25
2018-09-08T07:16:53.817Z,65.30
2018-09-08T07:17:32.655Z,66.09
2018-09-08T07:18:10.547Z,65.52
2018-09-08T07:18:48.701Z,65.62
2018-09-08T07:19:26.656Z,65.33
2018-09-08T07:20:04.689Z,64.98
2018-09-08T07:20:42.580Z,64.47
2018-09-08T07:21:20.529Z,64.09
2018-09-08T07:21:58.504Z,64.40
2018-09-08T07:22:36.460Z,63.70
2018-09-08T07:23:14.391Z,63.59
2018-09-08T07:23:52.325Z,63.51
2018-09-08T07:24:30.359Z,62.87
2018-09-08T07:25:08.685Z,62.81
2018-09-08T07:25:46.645Z,62.88
2018-09-08T07:26:24.667Z,63.09
2018-09-08T07:27:03.873Z,63.24
2018-09-08T07:27:41.805Z,63.47
2018-09-08T07:28:19.971Z,63.38
2018-09-08T07:28:57.970Z,63.49
2018-09-08T07:29:35.991Z,63.48
2018-09-08T07:30:14.151Z,63.10
2018-09-08T07:30:52.373Z,62.66
2018-09-08T07:31:30.533Z,62.69
2018-09-08T07:32:08.525Z,62.55
2018-09-08T07:32:46.538Z,63.20
2018-09-08T07:33:24.632Z,63.35
2018-09-08T07:34:02.698Z,62.73
2018-09-08T07:34:40.636Z,62.84
2018-09-08T07:35:18.585Z,61.94
2018-09-08T07:35:56.595Z,61.61
2018-09-08T07:36:34.766Z,61.77
2018-09-08T07:37:12.696Z,62.09
2018-09-08T07:37:50.802Z,61.84
2018-09-08T07:38:31.345Z,61.67
2018-09-08T07:39:12.872Z,61.53
2018-09-08T07:39:50.849Z,61.57
2018-09-08T07:40:28.846Z,61.50
2018-09-08T07:41:07.008Z,61.76
2018-09-08T07:41:44.957Z,61.70
2018-09-08T07:42:22.808Z,61.50
2018-09-08T07:43:01.659Z,61.31
2018-09-08T07:43:39.648Z,60.88
2018-09-08T07:44:17.666Z,60.54
2018-09-08T07:44:55.625Z,60.17
2018-09-08T07:45:33.523Z,60.35
2018-09-08T07:46:11.517Z,60.52
2018-09-08T07:46:49.568Z,60.28
2018-09-08T07:47:27.503Z,60.18
2018-09-08T07:48:05.665Z,60.42
2018-09-08T07:48:43.722Z,60.56
2018-09-08T07:49:21.661Z,61.27
2018-09-08T07:49:59.789Z,61.13
2018-09-08T07:50:37.795Z,61.46
2018-09-08T07:51:15.819Z,60.53
2018-09-08T07:51:53.765Z,60.53
2018-09-08T07:52:31.753Z,60.17
2018-09-08T07:53:10.103Z,59.93
2018-09-08T07:53:48.154Z,59.77
2018-09-08T07:54:26.261Z,59.61
2018-09-08T07:55:04.245Z,60.37
2018-09-08T07:55:42.315Z,60.16
2018-09-08T07:56:20.338Z,60.43
2018-09-08T07:56:58.644Z,59.79
2018-09-08T07:57:36.672Z,60.15
2018-09-08T07:58:14.764Z,60.51
2018-09-08T07:58:52.892Z,60.92
2018-09-08T07:59:30.938Z,61.64
2018-09-08T08:00:09.095Z,61.68
2018-09-08T08:00:49.996Z,61.74
2018-09-08T08:01:28.205Z,62.02
2018-09-08T08:02:06.118Z,61.53
2018-09-08T08:02:44.036Z,61.28
2018-09-08T08:03:22.073Z,61.82
2018-09-08T08:04:00.156Z,62.22
2018-09-08T08:04:38.299Z,62.37
2018-09-08T08:05:16.206Z,62.27
2018-09-08T08:05:54.232Z,62.13
2018-09-08T08:06:32.288Z,62.65
2018-09-08T08:07:15.897Z,62.65
2018-09-08T08:07:53.904Z,62.98
2018-09-08T08:08:31.945Z,63.30
2018-09-08T08:09:11.917Z,62.90